Lewes, Delaware
Current Conditions -  °F | °C
As of 8:54 AM on Thursday 29 Jan 2015 (Local Time) from KGED Reporting Station
Clear Clear  
Wind Chill: 28°   Ceiling: Unl
Heat Index: 28°   Visibility: 10mi
Dew Point: 13°   Wind: 0mph
Humidity: 53%   Direction: NA
Pressure: 30.34"   Gusts: NA
Location:  38.77°N, 75.14°W
Report Text: KGED 291354Z AUTO 00000KT 10SM CLR M02/M11 A3034 RMK AO2 SLP273 T10221106
Loading
Personal Weather Stations






























Interactive Weather Map New forecast layout! Learn more

10-Day Weather Forecast

Advertisements
Track Severe Weather on mobile